createdAt,value
2017-02-12T18:02:08.127Z,20.9
2017-02-12T18:02:49.491Z,20.99
2017-02-12T18:03:30.432Z,20.96
2017-02-12T18:04:11.414Z,20.97
2017-02-12T18:04:53.056Z,22.2
2017-02-12T18:05:33.647Z,26.16
2017-02-12T18:06:14.224Z,27.45
2017-02-12T18:08:52.761Z,20.4
2017-02-12T18:09:34.585Z,18.53
2017-02-12T18:10:15.208Z,17.11
2017-02-12T18:10:55.782Z,16.24
2017-02-12T18:11:36.394Z,15.29
2017-02-12T18:12:17.067Z,14.32
2017-02-12T18:12:58.273Z,13.5
2017-02-12T18:13:38.807Z,12.75
2017-02-12T18:14:19.349Z,12
2017-02-12T18:14:59.890Z,11.36
2017-02-12T18:15:40.420Z,10.72
2017-02-12T18:16:20.963Z,10.1
2017-02-12T18:17:01.514Z,9.72
2017-02-12T18:17:42.043Z,9.22
2017-02-12T18:18:22.582Z,8.74
2017-02-12T18:19:03.163Z,8.38
2017-02-12T18:19:43.701Z,7.9
2017-02-12T18:20:24.250Z,7.54
2017-02-12T18:21:04.769Z,7.36
2017-02-12T18:21:45.330Z,7.03
2017-02-12T18:22:25.873Z,6.74
2017-02-12T18:23:06.428Z,6.56
2017-02-12T18:23:46.987Z,6.35
2017-02-12T18:24:27.557Z,6.11
2017-02-12T18:25:08.103Z,5.93
2017-02-12T18:25:48.660Z,5.86
2017-02-12T18:26:29.204Z,5.57
2017-02-12T18:27:09.758Z,5.38
2017-02-12T18:27:50.341Z,5.3
2017-02-12T18:28:30.925Z,5.26
2017-02-12T18:29:11.491Z,5.04
2017-02-12T18:29:52.078Z,4.97
2017-02-12T18:30:32.642Z,4.93
2017-02-12T18:31:13.186Z,4.74
2017-02-12T18:31:53.718Z,4.71
2017-02-12T18:32:34.283Z,4.7
2017-02-12T18:33:14.840Z,4.53
2017-02-12T18:33:55.373Z,4.58
2017-02-12T18:34:35.930Z,4.48
2017-02-12T18:35:16.532Z,4.44
2017-02-12T18:35:57.075Z,4.35
2017-02-12T18:36:37.597Z,4.24
2017-02-12T18:37:18.134Z,4.26
2017-02-12T18:37:58.687Z,4.19
2017-02-12T18:38:39.269Z,4.13
2017-02-12T18:39:19.818Z,4.1
2017-02-12T18:40:00.347Z,4.01
2017-02-12T18:40:40.899Z,4.01
2017-02-12T18:41:21.559Z,3.92
2017-02-12T18:42:02.106Z,3.86
2017-02-12T18:42:42.650Z,3.78
2017-02-12T18:43:23.231Z,3.83
2017-02-12T18:44:03.784Z,3.8
2017-02-12T18:44:44.330Z,3.68
2017-02-12T18:45:24.942Z,3.66
2017-02-12T18:46:05.513Z,3.65
2017-02-12T18:46:46.075Z,3.59
2017-02-12T18:47:26.634Z,3.6
2017-02-12T18:48:07.198Z,3.58
2017-02-12T18:48:47.762Z,3.62
2017-02-12T18:49:28.339Z,3.56
2017-02-12T18:50:08.897Z,3.48
2017-02-12T18:50:49.430Z,3.41
2017-02-12T18:51:29.988Z,3.47
2017-02-12T18:52:10.544Z,3.4
2017-02-12T18:52:52.133Z,3.37
2017-02-12T18:53:36.385Z,3.45
2017-02-12T18:54:16.954Z,3.34
2017-02-12T18:54:57.907Z,3.37
2017-02-12T18:55:39.962Z,3.34
2017-02-12T18:56:27.187Z,3.36
2017-02-12T18:57:08.390Z,3.28
2017-02-12T18:57:48.978Z,3.36
2017-02-12T18:58:29.541Z,3.26
2017-02-12T18:59:10.105Z,3.34
2017-02-12T18:59:52.193Z,3.26
2017-02-12T19:00:33.988Z,3.26
2017-02-12T19:01:14.614Z,3.25
2017-02-12T19:01:55.458Z,3.1
2017-02-12T19:02:36.609Z,3.08
2017-02-12T19:03:17.172Z,3.05
2017-02-12T19:03:57.723Z,3.08
2017-02-12T19:04:38.306Z,3.1
2017-02-12T19:05:18.858Z,3.05
2017-02-12T19:05:59.430Z,3.05
2017-02-12T19:06:39.978Z,3.14
2017-02-12T19:07:20.523Z,3.05
2017-02-12T19:08:01.106Z,3.07
2017-02-12T19:08:41.669Z,3.08
2017-02-12T19:09:22.223Z,3.11
2017-02-12T19:10:02.823Z,3.05
2017-02-12T19:10:43.394Z,3.07
2017-02-12T19:11:23.990Z,3
2017-02-12T19:12:04.524Z,3.03
2017-02-12T19:12:45.116Z,2.98
2017-02-12T19:13:25.662Z,3
2017-02-12T19:14:06.240Z,2.97
2017-02-12T19:14:46.797Z,2.87
2017-02-12T19:15:27.334Z,2.87
2017-02-12T19:16:07.881Z,2.87
2017-02-12T19:16:48.405Z,2.97
2017-02-12T19:17:29.013Z,2.97
2017-02-12T19:18:09.578Z,3
2017-02-12T19:18:50.104Z,3
2017-02-12T19:19:30.670Z,3.05
2017-02-12T19:20:11.204Z,2.98
2017-02-12T19:20:51.820Z,2.98
2017-02-12T19:21:32.351Z,2.9
2017-02-12T19:22:12.899Z,2.97
2017-02-12T19:22:53.444Z,3
2017-02-12T19:23:33.994Z,2.9
2017-02-12T19:24:14.525Z,2.92
2017-02-12T19:24:55.063Z,2.87
2017-02-12T19:25:35.598Z,2.93
2017-02-12T19:26:16.154Z,2.93
2017-02-12T19:26:56.688Z,2.89
2017-02-12T19:27:37.210Z,2.89
2017-02-12T19:28:17.745Z,2.89
2017-02-12T19:28:58.283Z,2.86
2017-02-12T19:29:38.803Z,2.86
2017-02-12T19:30:19.349Z,2.89
2017-02-12T19:30:59.897Z,2.9
2017-02-12T19:31:40.420Z,2.86
2017-02-12T19:32:20.975Z,2.95
2017-02-12T19:33:01.523Z,3.05
2017-02-12T19:33:42.059Z,2.89
2017-02-12T19:34:22.595Z,2.89
2017-02-12T19:35:03.132Z,2.89
2017-02-12T19:35:43.681Z,2.87
2017-02-12T19:36:24.199Z,2.9
2017-02-12T19:37:04.767Z,2.9
2017-02-12T19:37:45.283Z,2.86
2017-02-12T19:38:25.817Z,2.89
2017-02-12T19:39:06.348Z,2.93
2017-02-12T19:39:46.888Z,2.85
2017-02-12T19:40:27.410Z,2.92
2017-02-12T19:41:07.969Z,2.79
2017-02-12T19:41:48.497Z,2.79
2017-02-12T19:42:29.023Z,2.86
2017-02-12T19:43:09.545Z,2.9
2017-02-12T19:43:50.096Z,2.9
2017-02-12T19:44:30.627Z,2.79
2017-02-12T19:45:11.157Z,2.75
2017-02-12T19:45:51.709Z,2.8
2017-02-12T19:46:32.279Z,2.68
2017-02-12T19:47:12.812Z,2.71
2017-02-12T19:47:53.348Z,2.74
2017-02-12T19:48:33.910Z,2.74
2017-02-12T19:49:14.446Z,2.72
2017-02-12T19:49:54.974Z,2.67
2017-02-12T19:50:35.527Z,2.72
2017-02-12T19:51:16.091Z,2.65
2017-02-12T19:51:56.649Z,2.72
2017-02-12T19:52:37.170Z,2.65
2017-02-12T19:53:17.713Z,2.65
2017-02-12T19:53:58.246Z,2.6
2017-02-12T19:54:38.780Z,2.6
2017-02-12T19:55:19.351Z,2.67
2017-02-12T19:55:59.907Z,2.6
2017-02-12T19:56:40.466Z,2.64
2017-02-12T19:57:21.006Z,2.51
2017-02-12T19:58:01.534Z,2.54
2017-02-12T19:58:42.052Z,2.47
2017-02-12T19:59:22.572Z,2.64
2017-02-12T20:00:03.087Z,2.61
2017-02-12T20:00:43.615Z,2.62
2017-02-12T20:01:24.145Z,2.56
2017-02-12T20:02:04.663Z,2.57
2017-02-12T20:02:45.195Z,2.61
2017-02-12T20:03:25.729Z,2.57
2017-02-12T20:04:06.293Z,2.62
2017-02-12T20:04:46.829Z,2.65
2017-02-12T20:05:27.374Z,2.6
2017-02-12T20:06:07.902Z,2.62
2017-02-12T20:06:48.438Z,2.68
2017-02-12T20:07:28.958Z,2.69
2017-02-12T20:08:09.476Z,2.72
2017-02-12T20:08:49.999Z,2.74
2017-02-12T20:09:30.533Z,2.74
2017-02-12T20:10:11.050Z,2.71
2017-02-12T20:10:51.582Z,2.79
2017-02-12T20:11:32.820Z,2.87
2017-02-12T20:12:13.335Z,2.79
2017-02-12T20:12:53.905Z,2.82
2017-02-12T20:13:34.473Z,2.87
2017-02-12T20:14:15.065Z,2.85
2017-02-12T20:14:55.553Z,2.83
2017-02-12T20:15:36.522Z,2.77
2017-02-12T20:16:17.978Z,2.75
2017-02-12T20:16:58.646Z,2.71
2017-02-12T20:17:39.855Z,2.77
2017-02-12T20:18:20.409Z,2.74
2017-02-12T20:19:00.938Z,2.74
2017-02-12T20:19:41.456Z,2.71
2017-02-12T20:20:22.003Z,2.71
2017-02-12T20:21:02.554Z,2.77
2017-02-12T20:21:43.083Z,2.79
2017-02-12T20:22:23.638Z,2.87
2017-02-12T20:23:04.189Z,2.85
2017-02-12T20:23:44.720Z,2.75
2017-02-12T20:24:25.254Z,2.8
2017-02-12T20:25:05.784Z,2.75
2017-02-12T20:25:46.354Z,2.71
2017-02-12T20:26:27.019Z,2.75
2017-02-12T20:27:07.472Z,2.68
2017-02-12T20:27:49.635Z,2.82
2017-02-12T20:28:30.572Z,2.87
2017-02-12T20:29:11.100Z,2.79
2017-02-12T20:29:51.622Z,2.89
2017-02-12T20:30:32.167Z,2.77
2017-02-12T20:31:12.721Z,2.89
2017-02-12T20:31:53.258Z,2.85
2017-02-12T20:32:33.791Z,2.86
2017-02-12T20:33:14.311Z,2.87
2017-02-12T20:33:54.862Z,2.9
2017-02-12T20:34:35.385Z,2.85
2017-02-12T20:35:15.920Z,2.9
2017-02-12T20:35:56.439Z,2.89
2017-02-12T20:36:36.969Z,2.89
2017-02-12T20:37:17.504Z,2.72
2017-02-12T20:37:58.017Z,2.86
2017-02-12T20:38:38.542Z,2.87
2017-02-12T20:39:19.129Z,2.77
2017-02-12T20:40:01.137Z,2.87
2017-02-12T20:40:41.652Z,2.74
2017-02-12T20:41:22.177Z,2.79
2017-02-12T20:42:02.707Z,2.8
2017-02-12T20:42:43.229Z,2.82
2017-02-12T20:43:23.755Z,2.86
2017-02-12T20:44:04.276Z,2.87
2017-02-12T20:44:44.821Z,2.86
2017-02-12T20:45:25.354Z,2.87
2017-02-12T20:46:05.889Z,2.89
2017-02-12T20:46:46.421Z,2.86
2017-02-12T20:47:26.973Z,2.9
2017-02-12T20:48:07.511Z,2.87
2017-02-12T20:48:48.040Z,2.87
2017-02-12T20:49:28.592Z,2.85
2017-02-12T20:50:09.130Z,2.85
2017-02-12T20:50:49.649Z,2.95
2017-02-12T20:51:30.172Z,2.87
2017-02-12T20:52:10.722Z,2.75
2017-02-12T20:52:51.262Z,2.83
2017-02-12T20:53:31.804Z,2.86
2017-02-12T20:54:12.334Z,2.9
2017-02-12T20:54:52.851Z,2.75
2017-02-12T20:55:33.393Z,2.82
2017-02-12T20:56:13.922Z,2.75
2017-02-12T20:56:54.545Z,2.71
2017-02-12T20:57:35.068Z,2.77
2017-02-12T20:58:15.600Z,2.74
2017-02-12T20:58:56.125Z,2.71
2017-02-12T20:59:36.665Z,2.67
2017-02-12T21:00:17.210Z,2.65
2017-02-12T21:00:57.762Z,2.67
2017-02-12T21:01:38.288Z,2.68
2017-02-12T21:02:18.824Z,2.77
2017-02-12T21:02:59.351Z,2.68
2017-02-12T21:03:39.907Z,2.67
2017-02-12T21:04:20.433Z,2.62
2017-02-12T21:05:00.977Z,2.54
2017-02-12T21:05:41.522Z,2.57
2017-02-12T21:06:22.051Z,2.49
2017-02-12T21:07:02.589Z,2.44
2017-02-12T21:07:43.148Z,2.44
2017-02-12T21:08:23.696Z,2.33
2017-02-12T21:09:04.232Z,2.38
2017-02-12T21:09:44.774Z,2.32
2017-02-12T21:10:25.304Z,2.35
2017-02-12T21:11:05.851Z,2.38
2017-02-12T21:11:46.369Z,2.31
2017-02-12T21:12:26.915Z,2.32
2017-02-12T21:13:07.441Z,2.33
2017-02-12T21:13:48.085Z,2.38
2017-02-12T21:14:28.614Z,2.28
2017-02-12T21:15:09.149Z,2.35
2017-02-12T21:15:49.682Z,2.35
2017-02-12T21:16:30.225Z,2.46
2017-02-12T21:17:10.769Z,2.35
2017-02-12T21:17:51.325Z,2.36
2017-02-12T21:18:31.876Z,2.38
2017-02-12T21:19:12.428Z,2.36
2017-02-12T21:19:52.948Z,2.31
2017-02-12T21:20:33.468Z,2.33
2017-02-12T21:21:14.024Z,2.36
2017-02-12T21:21:54.577Z,2.46
2017-02-12T21:22:35.148Z,2.47
2017-02-12T21:23:15.672Z,2.44
2017-02-12T21:23:56.207Z,2.49
2017-02-12T21:24:36.751Z,2.5
2017-02-12T21:25:17.270Z,2.5
2017-02-12T21:25:57.829Z,2.44
2017-02-12T21:26:38.384Z,2.51
2017-02-12T21:27:18.929Z,2.49
2017-02-12T21:27:59.482Z,2.47
2017-02-12T21:28:40.034Z,2.47
2017-02-12T21:29:20.593Z,2.44
2017-02-12T21:30:01.124Z,2.43
2017-02-12T21:30:41.650Z,2.43
2017-02-12T21:31:22.178Z,2.56
2017-02-12T21:32:02.711Z,2.56
2017-02-12T21:32:43.278Z,2.62
2017-02-12T21:33:23.806Z,2.57
2017-02-12T21:34:04.343Z,2.65
2017-02-12T21:34:44.889Z,2.57
2017-02-12T21:35:25.426Z,2.62
2017-02-12T21:36:05.984Z,2.61
2017-02-12T21:36:46.515Z,2.69
2017-02-12T21:37:27.053Z,2.6
2017-02-12T21:38:07.583Z,2.65
2017-02-12T21:38:48.106Z,2.72
2017-02-12T21:39:28.636Z,2.65
2017-02-12T21:40:09.190Z,2.72
2017-02-12T21:40:49.720Z,2.69
2017-02-12T21:41:30.283Z,2.69
2017-02-12T21:42:10.823Z,2.72
2017-02-12T21:42:51.351Z,2.67
2017-02-12T21:43:31.884Z,2.72
2017-02-12T21:44:12.445Z,2.67
2017-02-12T21:44:52.967Z,2.69
2017-02-12T21:45:33.513Z,2.65
2017-02-12T21:46:14.037Z,2.69
2017-02-12T21:46:54.594Z,2.64
2017-02-12T21:47:35.142Z,2.71
2017-02-12T21:48:15.671Z,2.6
2017-02-12T21:48:56.195Z,2.61
2017-02-12T21:49:36.759Z,2.68
2017-02-12T21:50:17.347Z,2.74
2017-02-12T21:50:57.906Z,2.74
2017-02-12T21:51:38.431Z,2.64
2017-02-12T21:52:18.960Z,2.71
2017-02-12T21:52:59.497Z,2.77
2017-02-12T21:53:40.037Z,2.67
2017-02-12T21:54:20.551Z,2.74
2017-02-12T21:55:01.084Z,2.75
2017-02-12T21:55:41.613Z,2.75
2017-02-12T21:56:22.150Z,2.72
2017-02-12T21:57:02.689Z,2.79
2017-02-12T21:57:43.216Z,2.89
2017-02-12T21:58:23.742Z,2.74
2017-02-12T21:59:04.264Z,2.75
2017-02-12T21:59:44.798Z,2.71
2017-02-12T22:00:25.326Z,2.79
2017-02-12T22:01:05.954Z,2.77
2017-02-12T22:01:46.454Z,2.69
2017-02-12T22:02:27.004Z,2.77
2017-02-12T22:03:07.558Z,2.79
2017-02-12T22:03:48.087Z,2.75
2017-02-12T22:04:28.620Z,2.72
2017-02-12T22:05:09.196Z,2.77
2017-02-12T22:05:49.753Z,2.69
2017-02-12T22:06:30.283Z,2.79
2017-02-12T22:07:10.815Z,2.69
2017-02-12T22:07:51.343Z,2.75
2017-02-12T22:08:31.896Z,2.6
2017-02-12T22:09:12.433Z,2.61
2017-02-12T22:09:52.953Z,2.62
2017-02-12T22:10:33.494Z,2.57
2017-02-12T22:11:14.015Z,2.61
2017-02-12T22:11:54.542Z,2.65
2017-02-12T22:12:35.068Z,2.57
2017-02-12T22:13:15.602Z,2.61
2017-02-12T22:13:56.130Z,2.65
2017-02-12T22:14:36.660Z,2.6
2017-02-12T22:15:17.188Z,2.54
2017-02-12T22:15:57.718Z,2.61
2017-02-12T22:16:38.251Z,2.57
2017-02-12T22:17:18.789Z,2.61
2017-02-12T22:17:59.309Z,2.57
2017-02-12T22:18:39.832Z,2.56
2017-02-12T22:19:20.377Z,2.56
2017-02-12T22:20:00.907Z,2.64
2017-02-12T22:20:41.436Z,2.57
2017-02-12T22:21:21.961Z,2.56
2017-02-12T22:22:02.498Z,2.62
2017-02-12T22:22:43.071Z,2.54
2017-02-12T22:23:23.596Z,2.62
2017-02-12T22:24:04.147Z,2.49
2017-02-12T22:24:44.666Z,2.49
2017-02-12T22:25:25.218Z,2.54
2017-02-12T22:26:05.753Z,2.6
2017-02-12T22:26:46.279Z,2.65
2017-02-12T22:27:26.808Z,2.54
2017-02-12T22:28:07.344Z,2.49
2017-02-12T22:28:47.871Z,2.49
2017-02-12T22:29:28.421Z,2.49
2017-02-12T22:30:08.958Z,2.43
2017-02-12T22:30:49.481Z,2.31
2017-02-12T22:31:30.008Z,2.32
2017-02-12T22:32:10.527Z,2.32
2017-02-12T22:32:51.050Z,2.32
2017-02-12T22:33:31.575Z,2.33
2017-02-12T22:34:12.116Z,2.33
2017-02-12T22:34:52.642Z,2.29
2017-02-12T22:35:33.179Z,2.2
2017-02-12T22:36:13.708Z,2.25
2017-02-12T22:36:54.228Z,2.28
2017-02-12T22:37:34.765Z,2.36
2017-02-12T22:38:15.290Z,2.24
2017-02-12T22:38:55.818Z,2.22
2017-02-12T22:39:36.358Z,2.26
2017-02-12T22:40:16.889Z,2.08
2017-02-12T22:40:57.443Z,2.13
2017-02-12T22:41:37.966Z,2.2
2017-02-12T22:42:18.541Z,2.08
2017-02-12T22:42:59.089Z,2.14
2017-02-12T22:43:39.716Z,2.07
2017-02-12T22:44:20.230Z,2.08
2017-02-12T22:45:00.755Z,1.99
2017-02-12T22:45:41.288Z,2
2017-02-12T22:46:21.833Z,2.08
2017-02-12T22:47:02.362Z,2.13
2017-02-12T22:47:42.903Z,2.02
2017-02-12T22:48:23.442Z,2.02
2017-02-12T22:49:03.988Z,1.99
2017-02-12T22:49:44.543Z,1.97
2017-02-12T22:50:25.099Z,1.94
2017-02-12T22:51:05.647Z,1.94
2017-02-12T22:51:46.153Z,1.99
2017-02-12T22:52:26.675Z,1.92
2017-02-12T22:53:07.200Z,1.85
2017-02-12T22:53:47.745Z,1.81
2017-02-12T22:54:28.300Z,1.77
2017-02-12T22:55:08.824Z,1.74
2017-02-12T22:55:49.359Z,1.74
2017-02-12T22:56:29.878Z,1.7
2017-02-12T22:57:10.399Z,1.63
2017-02-12T22:57:50.919Z,1.62
2017-02-12T22:58:31.463Z,1.59
2017-02-12T22:59:11.993Z,1.58
2017-02-12T22:59:52.512Z,1.55
2017-02-12T23:00:33.049Z,1.48
2017-02-12T23:01:13.571Z,1.45
2017-02-12T23:01:54.122Z,1.49
2017-02-12T23:02:34.627Z,1.44
2017-02-12T23:03:15.184Z,1.56
2017-02-12T23:03:55.699Z,1.6
2017-02-12T23:04:36.260Z,1.73
2017-02-12T23:05:16.815Z,1.8
2017-02-12T23:05:57.342Z,1.73
2017-02-12T23:06:37.895Z,1.8
2017-02-12T23:07:18.386Z,1.89
2017-02-12T23:07:58.915Z,1.95
2017-02-12T23:08:39.449Z,1.87
2017-02-12T23:09:19.976Z,1.99
2017-02-12T23:10:00.508Z,1.87
2017-02-12T23:10:41.060Z,1.89
2017-02-12T23:11:21.585Z,1.92
2017-02-12T23:12:02.113Z,1.91
2017-02-12T23:12:42.661Z,1.94
2017-02-12T23:13:23.183Z,1.95
2017-02-12T23:14:03.704Z,1.92
2017-02-12T23:14:44.246Z,1.92
2017-02-12T23:15:24.811Z,1.88
2017-02-12T23:16:05.341Z,1.81
2017-02-12T23:16:45.865Z,1.81
2017-02-12T23:17:26.413Z,1.78
2017-02-12T23:18:06.958Z,1.77
2017-02-12T23:18:47.482Z,1.68
2017-02-12T23:19:27.999Z,1.76
2017-02-12T23:20:08.521Z,1.74
2017-02-12T23:20:49.042Z,1.81
2017-02-12T23:21:29.583Z,1.78
2017-02-12T23:22:10.113Z,1.81
2017-02-12T23:22:50.635Z,1.92
2017-02-12T23:23:31.166Z,1.94
2017-02-12T23:24:11.691Z,1.91
2017-02-12T23:24:52.211Z,1.99
2017-02-12T23:25:32.738Z,1.87
2017-02-12T23:26:13.283Z,1.91
2017-02-12T23:26:53.814Z,1.92
2017-02-12T23:27:34.418Z,1.84
2017-02-12T23:28:14.939Z,1.84
2017-02-12T23:28:55.458Z,1.81
2017-02-12T23:29:35.975Z,1.91
2017-02-12T23:30:16.512Z,1.91
2017-02-12T23:30:57.029Z,1.88
2017-02-12T23:31:37.542Z,1.84
2017-02-12T23:32:18.064Z,1.8
2017-02-12T23:32:58.584Z,1.81
2017-02-12T23:33:39.133Z,1.91
2017-02-12T23:34:19.666Z,1.95
2017-02-12T23:35:00.191Z,1.95
2017-02-12T23:35:40.707Z,1.99
2017-02-12T23:36:21.230Z,1.85
2017-02-12T23:37:01.758Z,1.91
2017-02-12T23:37:42.284Z,1.89
2017-02-12T23:38:22.817Z,1.88
2017-02-12T23:39:03.356Z,1.77
2017-02-12T23:39:43.904Z,1.74
2017-02-12T23:40:24.419Z,1.68
2017-02-12T23:41:04.950Z,1.71
2017-02-12T23:41:45.474Z,1.81
2017-02-12T23:42:26.003Z,1.78
2017-02-12T23:43:06.537Z,1.74
2017-02-12T23:43:47.092Z,1.73
2017-02-12T23:44:27.603Z,1.74
2017-02-12T23:45:08.136Z,1.66
2017-02-12T23:45:48.678Z,1.6
2017-02-12T23:46:29.221Z,1.66
2017-02-12T23:47:09.760Z,1.44
2017-02-12T23:47:50.290Z,1.45
2017-02-12T23:48:30.804Z,1.52
2017-02-12T23:49:11.326Z,1.44
2017-02-12T23:49:51.849Z,1.5
2017-02-12T23:50:32.367Z,1.48
2017-02-12T23:51:12.892Z,1.41
2017-02-12T23:51:53.427Z,1.41
2017-02-12T23:52:33.968Z,1.42
2017-02-12T23:53:14.491Z,1.38
2017-02-12T23:53:55.006Z,1.34
2017-02-12T23:54:35.518Z,1.3
2017-02-12T23:55:16.051Z,1.22
2017-02-12T23:55:56.610Z,1.34
2017-02-12T23:56:37.143Z,1.3
2017-02-12T23:57:17.664Z,1.16
2017-02-12T23:57:58.186Z,1.23
2017-02-12T23:58:38.701Z,1.22
2017-02-12T23:59:19.216Z,1.3
2017-02-12T23:59:59.734Z,1.35
